Time;durP1;ratioP1;P1;durP2;ratioP2;P2;SDS_P1;SDS_P2;PMS_P1;PMS_P2;Temp;Humidity;BMP_temperature;BMP_pressure;BME280_temperature;BME280_humidity;BME280_pressure;Samples;Min_cycle;Max_cycle;Signal;HPM_P1;HPM_P2
2024/03/13 00:00:22;;;;;;;68.68;29.10;;;;;;;7.85;100.00;101166.63;5042732;28;20112;-67
2024/03/13 00:02:49;;;;;;;67.60;29.10;;;;;;;7.87;100.00;101165.75;5044090;28;20021;-67
2024/03/13 00:05:15;;;;;;;77.05;29.67;;;;;;;7.89;100.00;101169.31;5044026;28;20083;-67
2024/03/13 00:07:40;;;;;;;76.65;29.23;;;;;;;7.91;100.00;101167.59;5044056;28;20021;-68
2024/03/13 00:10:08;;;;;;;74.47;29.98;;;;;;;7.89;100.00;101158.78;5044455;28;20123;-67
2024/03/13 00:12:34;;;;;;;72.85;30.52;;;;;;;7.93;100.00;101168.50;5043641;28;20053;-67
2024/03/13 00:15:01;;;;;;;73.38;29.95;;;;;;;7.94;100.00;101168.53;5045324;28;20028;-68
2024/03/13 00:17:27;;;;;;;75.63;30.13;;;;;;;7.94;100.00;101165.03;5042246;28;20034;-70
2024/03/13 00:19:54;;;;;;;69.28;30.50;;;;;;;7.97;100.00;101170.34;5038272;28;20365;-68
2024/03/13 00:22:21;;;;;;;72.40;29.13;;;;;;;7.98;100.00;101169.47;5044918;28;20075;-68
2024/03/13 00:24:52;;;;;;;81.22;31.02;;;;;;;8.00;100.00;101176.56;5043113;28;20041;-67
2024/03/13 00:27:18;;;;;;;90.47;30.90;;;;;;;8.01;100.00;101180.09;5044962;28;20036;-71
2024/03/13 00:29:47;;;;;;;75.22;31.35;;;;;;;8.03;100.00;101175.75;5042530;28;20060;-69
2024/03/13 00:32:16;;;;;;;77.70;31.00;;;;;;;8.06;100.00;101169.66;5044178;28;20416;-67
2024/03/13 00:34:44;;;;;;;98.10;31.73;;;;;;;8.06;100.00;101172.28;5043283;28;20032;-68
2024/03/13 00:37:10;;;;;;;75.70;31.23;;;;;;;8.09;100.00;101174.97;5043781;28;20037;-70
2024/03/13 00:39:36;;;;;;;78.57;32.70;;;;;;;8.11;100.00;101176.78;5044322;28;20039;-71
2024/03/13 00:42:02;;;;;;;87.32;32.80;;;;;;;8.14;100.00;101186.47;5042400;28;20036;-69
2024/03/13 00:44:28;;;;;;;81.05;31.52;;;;;;;8.14;100.00;101186.47;5045210;28;20029;-67
2024/03/13 00:46:54;;;;;;;81.75;33.08;;;;;;;8.15;100.00;101183.88;5040493;28;20033;-68
2024/03/13 00:49:20;;;;;;;80.28;33.45;;;;;;;8.19;100.00;101190.97;5044566;28;20036;-67
2024/03/13 00:51:45;;;;;;;88.43;34.10;;;;;;;8.22;100.00;101194.53;5042544;28;20021;-66
2024/03/13 00:54:11;;;;;;;102.95;34.25;;;;;;;8.24;100.00;101193.69;5042105;28;20037;-67
2024/03/13 00:56:36;;;;;;;96.50;33.35;;;;;;;8.24;100.00;101198.97;5042340;28;20061;-66
2024/03/13 00:59:05;;;;;;;94.85;34.58;;;;;;;8.27;100.00;101199.06;5042252;28;20033;-66
2024/03/13 01:01:30;;;;;;;107.88;35.60;;;;;;;8.29;100.00;101188.53;5044355;28;20025;-68
2024/03/13 01:03:59;;;;;;;104.47;36.33;;;;;;;8.30;100.00;101196.47;5040339;28;20041;-67
2024/03/13 01:06:28;;;;;;;111.13;35.22;;;;;;;8.33;100.00;101201.78;5045090;28;20040;-67
2024/03/13 01:08:56;;;;;;;109.30;36.40;;;;;;;8.34;100.00;101198.31;5037409;28;20426;-66
2024/03/13 01:11:21;;;;;;;110.65;37.28;;;;;;;8.35;100.00;101193.91;5044484;28;20033;-66
2024/03/13 01:13:47;;;;;;;106.97;36.67;;;;;;;8.38;100.00;101192.22;5042090;28;20024;-67
2024/03/13 01:16:13;;;;;;;113.28;36.83;;;;;;;8.41;100.00;101196.66;5043191;28;20033;-66
2024/03/13 01:18:38;;;;;;;111.63;37.05;;;;;;;8.43;100.00;101189.69;5043078;28;20036;-66
2024/03/13 01:21:03;;;;;;;123.63;37.10;;;;;;;8.45;100.00;101185.34;5041785;28;20504;-67
2024/03/13 01:23:29;;;;;;;111.95;38.30;;;;;;;8.50;100.00;101185.44;5044458;28;20047;-66
2024/03/13 01:25:58;;;;;;;121.07;38.55;;;;;;;8.51;100.00;101187.22;5041526;28;20411;-66
2024/03/13 01:28:23;;;;;;;104.88;37.72;;;;;;;8.56;100.00;101190.81;5044571;28;20368;-68
2024/03/13 01:30:49;;;;;;;111.90;38.67;;;;;;;8.59;100.00;101190.91;5041371;28;20064;-74
2024/03/13 01:33:14;;;;;;;91.70;37.05;;;;;;;8.66;100.00;101191.88;5043236;28;20037;-74
2024/03/13 01:35:40;;;;;;;94.68;37.40;;;;;;;8.70;100.00;101186.69;5042589;28;20040;-71
2024/03/13 01:38:05;;;;;;;106.68;38.00;;;;;;;8.71;100.00;101185.81;5042021;28;20049;-74
2024/03/13 01:55:07;;;;;;;57.55;28.75;;;;;;;9.28;100.00;101188.50;5036927;28;20044;-74
2024/03/13 01:57:45;;;;;;;56.45;27.58;;;;;;;9.34;100.00;101193.00;5038605;28;20431;-73
2024/03/13 02:02:55;;;;;;;51.90;24.75;;;;;;;9.40;100.00;101193.06;5036988;28;20080;-73
2024/03/13 02:05:21;;;;;;;49.90;23.67;;;;;;;9.43;100.00;101199.25;5043831;28;20064;-74
2024/03/13 02:07:48;;;;;;;48.60;22.42;;;;;;;9.46;100.00;101192.28;5041491;28;20539;-74
2024/03/13 02:10:14;;;;;;;50.58;22.88;;;;;;;9.46;100.00;101189.63;5042606;28;20435;-74
2024/03/13 02:13:03;;;;;;;45.38;21.17;;;;;;;9.51;100.00;101195.84;5042821;28;20032;-72
2024/03/13 02:15:28;;;;;;;43.38;20.80;;;;;;;9.47;100.00;101188.78;5044094;28;20033;-70
2024/03/13 02:17:54;;;;;;;45.55;21.13;;;;;;;9.51;100.00;101190.56;5040435;28;20124;-68
2024/03/13 02:20:24;;;;;;;45.05;20.70;;;;;;;9.53;100.00;101191.50;5043306;28;20048;-68
2024/03/13 02:22:51;;;;;;;45.53;20.30;;;;;;;9.54;100.00;101195.94;5040832;28;20531;-73
2024/03/13 02:25:17;;;;;;;46.20;21.13;;;;;;;9.55;100.00;101192.41;5043071;28;20121;-71
2024/03/13 02:27:51;;;;;;;47.17;19.95;;;;;;;9.57;100.00;101195.97;5041779;28;20120;-73
2024/03/13 02:30:18;;;;;;;44.83;20.17;;;;;;;9.57;100.00;101196.84;5042595;28;20068;-68
2024/03/13 02:32:47;;;;;;;49.30;21.30;;;;;;;9.57;100.00;101188.91;5041991;28;20051;-69
2024/03/13 02:35:13;;;;;;;48.20;21.35;;;;;;;9.57;100.00;101198.59;5042358;28;20033;-71
2024/03/13 02:37:42;;;;;;;49.40;20.80;;;;;;;9.59;100.00;101194.22;5042332;28;20037;-71
2024/03/13 02:40:10;;;;;;;49.22;22.20;;;;;;;9.61;100.00;101187.22;5041651;28;20022;-68
2024/03/13 02:42:37;;;;;;;51.28;23.15;;;;;;;9.59;100.00;101189.81;5042521;28;20036;-74
2024/03/13 02:45:03;;;;;;;51.92;22.10;;;;;;;9.59;100.00;101194.22;5040821;28;20069;-71
2024/03/13 02:47:29;;;;;;;52.17;22.55;;;;;;;9.59;100.00;101189.81;5043684;28;20040;-74
2024/03/13 02:49:54;;;;;;;51.22;21.00;;;;;;;9.60;100.00;101188.97;5038772;28;20033;-73
2024/03/13 02:52:19;;;;;;;55.53;22.85;;;;;;;9.59;100.00;101194.22;5043928;28;20029;-72
2024/03/13 02:54:45;;;;;;;50.70;23.50;;;;;;;9.63;100.00;101195.16;5043972;28;20080;-68
2024/03/13 02:57:10;;;;;;;57.97;23.15;;;;;;;9.59;100.00;101200.38;5045337;28;20041;-66
2024/03/13 02:59:38;;;;;;;55.33;23.55;;;;;;;9.59;100.00;101188.94;5046059;28;20040;-71
2024/03/13 03:02:04;;;;;;;55.50;22.77;;;;;;;9.62;100.00;101196.91;5044747;28;20068;-71
2024/03/13 03:04:29;;;;;;;53.95;23.80;;;;;;;9.62;100.00;101202.19;5047048;28;20060;-70
2024/03/13 03:06:54;;;;;;;58.33;23.88;;;;;;;9.62;100.00;101194.25;5043652;28;20433;-68
2024/03/13 03:09:21;;;;;;;56.75;23.20;;;;;;;9.62;100.00;101202.19;5046447;28;20041;-65
2024/03/13 03:11:47;;;;;;;54.72;22.95;;;;;;;9.62;100.00;101199.53;5043344;28;20065;-65
2024/03/13 03:14:13;;;;;;;54.80;23.45;;;;;;;9.62;100.00;101202.19;5045420;28;20538;-66
2024/03/13 03:16:39;;;;;;;55.47;23.33;;;;;;;9.61;100.00;101203.06;5045503;28;20432;-66
2024/03/13 03:19:04;;;;;;;59.40;23.83;;;;;;;9.60;100.00;101203.94;5044110;28;20060;-65
2024/03/13 03:21:30;;;;;;;60.90;23.35;;;;;;;9.61;100.00;101208.34;5046378;28;20049;-65
2024/03/13 03:23:57;;;;;;;59.58;24.67;;;;;;;9.60;100.00;101201.28;5043685;28;20025;-68
2024/03/13 03:26:23;;;;;;;66.78;26.27;;;;;;;9.60;100.00;101202.16;5046441;28;20025;-67
2024/03/13 03:28:49;;;;;;;61.90;24.40;;;;;;;9.62;100.00;101210.09;5042740;28;20458;-69
2024/03/13 03:31:15;;;;;;;67.53;26.65;;;;;;;9.61;100.00;101213.63;5045336;28;20140;-67
2024/03/13 03:33:40;;;;;;;82.97;27.52;;;;;;;9.61;100.00;101216.25;5044849;28;20423;-66
2024/03/13 03:36:06;;;;;;;65.45;28.13;;;;;;;9.62;100.00;101211.88;5044268;28;20104;-66
2024/03/13 03:38:32;;;;;;;57.72;27.00;;;;;;;9.63;100.00;101213.66;5046610;28;20416;-66
2024/03/13 03:40:58;;;;;;;61.88;27.40;;;;;;;9.63;100.00;101211.88;5042988;28;20167;-67
2024/03/13 03:43:23;;;;;;;59.38;27.25;;;;;;;9.63;100.00;101217.16;5046670;28;20029;-67
2024/03/13 03:45:53;;;;;;;59.53;27.50;;;;;;;9.62;100.00;101219.78;5043413;28;20044;-67
2024/03/13 03:48:19;;;;;;;59.38;27.08;;;;;;;9.62;100.00;101219.78;5045590;28;20041;-67
2024/03/13 03:50:44;;;;;;;64.18;26.70;;;;;;;9.60;100.00;101230.31;5044294;28;20490;-74
2024/03/13 03:53:10;;;;;;;60.30;25.98;;;;;;;9.59;100.00;101221.50;5044192;28;20124;-75
2024/03/13 03:55:36;;;;;;;64.97;26.27;;;;;;;9.59;100.00;101224.13;5044038;28;20090;-66
2024/03/13 03:58:01;;;;;;;59.80;26.00;;;;;;;9.59;100.00;101228.53;5043092;28;20525;-74
2024/03/13 04:00:30;;;;;;;60.17;24.98;;;;;;;9.59;100.00;101226.78;5046428;28;20108;-66
2024/03/13 04:02:55;;;;;;;58.88;24.77;;;;;;;9.59;100.00;101229.41;5038364;28;20037;-66
2024/03/13 04:05:21;;;;;;;54.88;24.20;;;;;;;9.59;100.00;101225.91;5044593;28;20463;-67
2024/03/13 04:07:49;;;;;;;52.28;23.58;;;;;;;9.58;100.00;101229.38;5043453;28;20669;-66
2024/03/13 04:10:14;;;;;;;56.70;24.30;;;;;;;9.56;100.00;101233.78;5043184;28;20036;-72
2024/03/13 04:12:39;;;;;;;58.30;25.08;;;;;;;9.56;100.00;101229.38;5044650;28;20033;-73
2024/03/13 04:15:05;;;;;;;55.05;23.88;;;;;;;9.54;100.00;101238.16;5043028;28;20025;-73
2024/03/13 04:17:30;;;;;;;55.83;25.55;;;;;;;9.53;100.00;101237.25;5045343;28;20040;-73
2024/03/13 04:19:57;;;;;;;56.13;25.20;;;;;;;9.54;100.00;101235.50;5042364;28;20037;-69
2024/03/13 04:22:23;;;;;;;55.13;25.88;;;;;;;9.53;100.00;101236.38;5045103;28;20045;-74
2024/03/13 04:24:51;;;;;;;58.25;24.50;;;;;;;9.52;100.00;101231.94;5042768;28;20036;-74
2024/03/13 04:27:16;;;;;;;57.70;24.83;;;;;;;9.52;100.00;101237.22;5044611;28;20087;-66
2024/03/13 04:29:42;;;;;;;61.42;26.83;;;;;;;9.51;100.00;101235.44;5043609;28;20391;-66
2024/03/13 04:32:08;;;;;;;62.22;26.70;;;;;;;9.50;100.00;101239.84;5042876;28;20025;-67
2024/03/13 04:34:34;;;;;;;64.43;26.63;;;;;;;9.49;100.00;101231.91;5043681;28;20055;-66
2024/03/13 04:36:59;;;;;;;64.90;27.40;;;;;;;9.47;100.00;101241.56;5040668;28;20104;-68
2024/03/13 04:39:24;;;;;;;72.57;27.70;;;;;;;9.40;100.00;101246.72;5041960;28;20033;-69
2024/03/13 04:41:50;;;;;;;61.47;27.17;;;;;;;9.46;100.00;101247.69;5044719;28;20036;-66
2024/03/13 04:44:16;;;;;;;63.60;26.90;;;;;;;9.45;100.00;101248.56;5043093;28;20094;-70
2024/03/13 04:46:43;;;;;;;66.10;27.27;;;;;;;9.45;100.00;101246.81;5043224;28;20037;-66
2024/03/13 04:49:10;;;;;;;64.10;26.90;;;;;;;9.40;100.00;101241.44;5043886;28;20041;-67
2024/03/13 04:51:37;;;;;;;67.70;26.35;;;;;;;9.40;100.00;101245.84;5042453;28;20025;-66
2024/03/13 04:54:03;;;;;;;57.83;25.33;;;;;;;9.45;100.00;101254.75;5044469;28;20040;-65
2024/03/13 04:56:29;;;;;;;59.15;26.75;;;;;;;9.45;100.00;101249.47;5040773;28;20036;-66
2024/03/13 04:58:54;;;;;;;61.50;25.85;;;;;;;9.45;100.00;101253.81;5044833;28;20028;-66
2024/03/13 05:01:19;;;;;;;66.03;25.52;;;;;;;9.42;100.00;101255.56;5042477;28;20120;-69
2024/03/13 05:03:45;;;;;;;58.60;26.55;;;;;;;9.40;100.00;101257.28;5043419;28;20025;-67
2024/03/13 05:06:11;;;;;;;62.08;25.92;;;;;;;9.40;100.00;101257.28;5043343;28;20063;-71
2024/03/13 05:08:36;;;;;;;63.55;26.42;;;;;;;9.41;100.00;101263.47;5042227;28;20084;-66
2024/03/13 05:11:02;;;;;;;63.30;25.90;;;;;;;9.43;100.00;101264.34;5044753;28;20072;-72
2024/03/13 05:13:27;;;;;;;60.13;26.30;;;;;;;9.40;100.00;101267.84;5041363;28;20025;-71
2024/03/13 05:15:53;;;;;;;58.47;27.40;;;;;;;9.41;100.00;101263.47;5044084;28;20376;-66
2024/03/13 05:18:19;;;;;;;64.05;27.90;;;;;;;9.39;100.00;101271.34;5040803;28;20033;-69
2024/03/13 05:20:45;;;;;;;62.80;27.52;;;;;;;9.38;100.00;101277.50;5042846;28;20240;-66
2024/03/13 05:23:10;;;;;;;66.10;27.27;;;;;;;9.38;100.00;101269.56;5043587;28;20512;-74
2024/03/13 05:25:36;;;;;;;62.00;27.15;;;;;;;9.40;100.00;101273.09;5041780;28;20481;-72
2024/03/13 05:28:02;;;;;;;62.70;26.67;;;;;;;9.41;100.00;101284.56;5044212;28;20397;-74
2024/03/13 05:30:28;;;;;;;63.03;26.50;;;;;;;9.38;100.00;101273.97;5039928;28;20462;-74
2024/03/13 05:32:54;;;;;;;60.83;27.25;;;;;;;9.36;100.00;101276.59;5044304;28;20060;-73
2024/03/13 05:35:19;;;;;;;66.90;27.27;;;;;;;9.36;100.00;101279.22;5041527;28;20025;-74
2024/03/13 05:37:46;;;;;;;63.65;29.00;;;;;;;9.37;100.00;101283.63;5043059;28;20029;-74
2024/03/13 05:40:17;;;;;;;62.33;26.13;;;;;;;9.38;100.00;101280.13;5042705;28;20143;-72
2024/03/13 05:42:43;;;;;;;69.72;28.75;;;;;;;9.38;100.00;101292.44;5042481;28;20068;-73
2024/03/13 05:45:09;;;;;;;67.07;27.02;;;;;;;9.36;100.00;101283.59;5043259;28;20501;-74
2024/03/13 05:47:35;;;;;;;71.25;28.92;;;;;;;9.35;100.00;101285.34;5041204;28;20087;-74
2024/03/13 05:50:00;;;;;;;68.72;28.85;;;;;;;9.36;100.00;101289.78;5043971;28;20043;-74
2024/03/13 05:52:26;;;;;;;74.72;28.15;;;;;;;9.36;100.00;101291.50;5037320;28;20128;-73
2024/03/13 05:54:51;;;;;;;72.07;29.17;;;;;;;9.35;100.00;101290.63;5042290;28;20025;-69
2024/03/13 05:57:17;;;;;;;74.22;30.25;;;;;;;9.33;100.00;101292.34;5041733;28;20108;-73
2024/03/13 05:59:43;;;;;;;81.43;30.50;;;;;;;9.32;100.00;101290.59;5042351;28;20026;-74
2024/03/13 06:02:08;;;;;;;86.13;31.60;;;;;;;9.32;100.00;101287.03;5041794;28;20036;-70
2024/03/13 06:04:35;;;;;;;74.85;31.50;;;;;;;9.33;100.00;101288.81;5041310;28;20026;-67
2024/03/13 06:07:00;;;;;;;82.70;31.85;;;;;;;9.33;100.00;101287.06;5044164;28;20041;-72
2024/03/13 06:09:28;;;;;;;76.07;30.35;;;;;;;9.37;100.00;101293.28;5036540;28;20488;-71
2024/03/13 06:11:53;;;;;;;78.20;31.92;;;;;;;9.34;100.00;101301.16;5043975;28;20490;-70
2024/03/13 06:14:19;;;;;;;79.05;31.95;;;;;;;9.33;100.00;101305.53;5041393;28;20119;-70
2024/03/13 06:16:44;;;;;;;85.03;33.83;;;;;;;9.34;100.00;101304.69;5042289;28;20049;-71
2024/03/13 06:19:11;;;;;;;81.28;33.58;;;;;;;9.36;100.00;101307.34;5043139;28;20029;-76
2024/03/13 06:21:36;;;;;;;88.10;33.78;;;;;;;9.34;100.00;101299.41;5041177;28;20081;-72
2024/03/13 06:24:05;;;;;;;87.80;35.53;;;;;;;9.37;100.00;101307.38;5043806;28;20049;-76
2024/03/13 06:26:30;;;;;;;86.78;35.60;;;;;;;9.35;100.00;101306.47;5041037;28;20033;-77
2024/03/13 06:31:40;;;;;;;93.30;37.50;;;;;;;9.35;100.00;101305.56;5043738;28;20028;-77
2024/03/13 06:34:08;;;;;;;92.38;37.03;;;;;;;9.34;100.00;101309.09;5047469;28;20025;-73
2024/03/13 06:36:39;;;;;;;90.50;37.90;;;;;;;9.34;100.00;101315.22;5045393;28;20032;-77
2024/03/13 06:39:04;;;;;;;93.22;38.33;;;;;;;9.35;100.00;101309.09;5047475;28;20119;-73
2024/03/13 06:41:30;;;;;;;93.57;40.83;;;;;;;9.30;100.00;101318.69;5044144;28;20156;-66
2024/03/13 06:43:55;;;;;;;91.53;38.90;;;;;;;9.29;100.00;101322.19;5047542;28;20032;-68
2024/03/13 06:46:21;;;;;;;97.63;40.30;;;;;;;9.28;100.00;101328.31;5044986;28;20034;-66
2024/03/13 06:48:46;;;;;;;99.15;39.25;;;;;;;9.28;100.00;101312.50;5045766;28;20160;-73
2024/03/13 06:51:13;;;;;;;96.75;40.40;;;;;;;9.29;100.00;101319.56;5046063;28;20116;-68
2024/03/13 06:53:38;;;;;;;104.40;40.22;;;;;;;9.29;100.00;101324.84;5044787;28;20033;-66
2024/03/13 06:56:04;;;;;;;100.57;39.70;;;;;;;9.30;100.00;101323.06;5046875;28;20079;-66
2024/03/13 06:58:30;;;;;;;103.00;40.15;;;;;;;9.29;100.00;101330.13;5044036;28;20048;-68
2024/03/13 07:00:57;;;;;;;103.82;40.72;;;;;;;9.29;100.00;101332.75;5047041;28;20029;-67
2024/03/13 07:03:23;;;;;;;105.70;42.58;;;;;;;9.28;100.00;101328.31;5042957;28;20457;-66
2024/03/13 07:05:51;;;;;;;105.75;40.00;;;;;;;9.29;100.00;101329.22;5046266;28;20083;-69
2024/03/13 07:08:17;;;;;;;107.25;40.28;;;;;;;9.29;100.00;101330.13;5044712;28;20025;-65
2024/03/13 07:10:43;;;;;;;106.85;39.85;;;;;;;9.29;100.00;101329.22;5045358;28;20384;-67
2024/03/13 07:13:08;;;;;;;101.53;38.92;;;;;;;9.31;100.00;101335.41;5044900;28;20025;-69
2024/03/13 07:15:34;;;;;;;103.18;40.38;;;;;;;9.30;100.00;101333.63;5043789;28;20068;-67
2024/03/13 07:18:00;;;;;;;96.25;36.55;;;;;;;9.31;100.00;101338.94;5046779;28;20369;-66
2024/03/13 07:20:25;;;;;;;97.28;38.08;;;;;;;9.31;100.00;101323.09;5043654;28;20033;-66
2024/03/13 07:22:51;;;;;;;86.93;35.38;;;;;;;9.30;100.00;101323.94;5045797;28;20029;-67
2024/03/13 07:25:17;;;;;;;90.65;35.58;;;;;;;9.33;100.00;101326.63;5044649;28;20074;-66
2024/03/13 07:27:43;;;;;;;87.05;35.58;;;;;;;9.34;100.00;101328.44;5044906;28;20029;-66
2024/03/13 07:30:09;;;;;;;93.90;35.80;;;;;;;9.35;100.00;101322.28;5045513;28;20044;-67
2024/03/13 07:32:34;;;;;;;91.85;35.22;;;;;;;9.40;100.00;101320.59;5042469;28;20026;-67
2024/03/13 07:35:00;;;;;;;93.20;36.20;;;;;;;9.45;100.00;101327.72;5046395;28;20052;-67
2024/03/13 07:37:26;;;;;;;92.45;37.95;;;;;;;9.44;100.00;101332.13;5042991;28;20037;-66
2024/03/13 07:39:55;;;;;;;91.45;35.58;;;;;;;9.49;100.00;101337.47;5045442;28;20029;-66
2024/03/13 07:42:21;;;;;;;93.63;36.83;;;;;;;9.50;100.00;101339.25;5043726;28;20029;-67
2024/03/13 07:44:46;;;;;;;90.47;36.58;;;;;;;9.53;100.00;101347.22;5044808;28;20037;-73
2024/03/13 07:47:12;;;;;;;91.22;35.90;;;;;;;9.52;100.00;101346.34;5044999;28;20021;-66
2024/03/13 07:49:38;;;;;;;90.75;36.28;;;;;;;9.52;100.00;101356.91;5043275;28;20087;-68
2024/03/13 07:52:04;;;;;;;89.00;35.97;;;;;;;9.58;100.00;101356.09;5046021;28;20029;-71
2024/03/13 07:54:30;;;;;;;94.45;37.85;;;;;;;9.57;100.00;101359.59;5042844;28;20041;-67
2024/03/13 07:56:55;;;;;;;89.35;38.60;;;;;;;9.58;100.00;101361.38;5046022;28;20025;-73
2024/03/13 07:59:25;;;;;;;98.38;38.53;;;;;;;9.62;100.00;101362.31;5043723;28;20086;-73
2024/03/13 08:01:51;;;;;;;86.13;37.75;;;;;;;9.65;100.00;101363.25;5045269;28;20029;-73
2024/03/13 08:04:17;;;;;;;86.50;37.40;;;;;;;9.67;100.00;101365.91;5042869;28;20389;-72
2024/03/13 08:06:42;;;;;;;84.13;37.53;;;;;;;9.71;100.00;101373.94;5043848;28;20025;-70
2024/03/13 08:09:07;;;;;;;82.25;37.92;;;;;;;9.74;100.00;101373.97;5045158;28;20083;-71
2024/03/13 08:11:33;;;;;;;78.50;35.33;;;;;;;9.77;100.00;101394.22;5042477;28;20464;-71
2024/03/13 08:14:01;;;;;;;68.00;32.20;;;;;;;9.73;100.00;101397.72;5045840;28;20055;-72
2024/03/13 08:16:26;;;;;;;69.70;33.17;;;;;;;9.70;100.00;101384.47;5042852;28;20037;-72
2024/03/13 08:18:52;;;;;;;68.05;32.83;;;;;;;9.71;100.00;101383.56;5044992;28;20033;-73
2024/03/13 08:21:17;;;;;;;64.13;32.67;;;;;;;9.68;100.00;101389.69;5043125;28;20037;-72
2024/03/13 08:23:44;;;;;;;61.95;31.33;;;;;;;9.70;100.00;101392.38;5043554;28;20040;-73
2024/03/13 08:26:11;;;;;;;66.18;33.22;;;;;;;9.70;100.00;101395.03;5044248;28;20075;-71
2024/03/13 08:28:37;;;;;;;64.28;32.28;;;;;;;9.73;100.00;101388.03;5042419;28;20167;-71
2024/03/13 08:31:05;;;;;;;65.22;32.47;;;;;;;9.76;100.00;101393.34;5045547;28;20025;-70
2024/03/13 08:33:31;;;;;;;63.13;32.92;;;;;;;9.71;100.00;101397.69;5041972;28;20029;-70
2024/03/13 08:35:57;;;;;;;61.92;31.83;;;;;;;9.69;100.00;101395.88;5043995;28;20033;-72
2024/03/13 08:38:23;;;;;;;68.10;34.08;;;;;;;9.70;100.00;101398.53;5042620;28;20163;-69
2024/03/13 08:40:48;;;;;;;66.43;34.70;;;;;;;9.66;100.00;101395.84;5043874;28;20519;-70
2024/03/13 08:43:18;;;;;;;64.97;34.03;;;;;;;9.69;100.00;101401.16;5043649;28;20033;-72
2024/03/13 08:45:44;;;;;;;67.00;34.03;;;;;;;9.69;100.00;101404.66;5042220;28;20021;-71
2024/03/13 08:48:11;;;;;;;65.03;33.58;;;;;;;9.64;100.00;101409.00;5044342;28;20036;-70
2024/03/13 08:50:37;;;;;;;64.97;33.17;;;;;;;9.69;100.00;101411.72;5041203;28;20030;-69
2024/03/13 08:53:03;;;;;;;65.82;33.90;;;;;;;9.67;100.00;101413.41;5045415;28;20059;-72
2024/03/13 08:55:32;;;;;;;61.60;31.80;;;;;;;9.67;100.00;101414.34;5037629;28;20029;-73
2024/03/13 08:57:58;;;;;;;65.65;31.80;;;;;;;9.71;100.00;101412.63;5044840;28;20071;-73
2024/03/13 09:00:24;;;;;;;67.32;31.70;;;;;;;9.74;100.00;101421.50;5042259;28;20053;-73
2024/03/13 09:02:55;;;;;;;68.93;31.40;;;;;;;9.75;100.00;101417.97;5043579;28;20037;-73
2024/03/13 09:05:21;;;;;;;61.08;29.20;;;;;;;9.74;100.00;101410.94;5042228;28;20037;-73
2024/03/13 09:07:46;;;;;;;61.95;29.52;;;;;;;9.71;100.00;101429.38;5041996;28;20108;-70
2024/03/13 09:10:12;;;;;;;62.83;30.10;;;;;;;9.70;100.00;101416.16;5043312;28;20079;-72
2024/03/13 09:12:41;;;;;;;59.92;29.35;;;;;;;9.74;100.00;101418.84;5041844;28;20503;-71
2024/03/13 09:15:07;;;;;;;66.60;31.77;;;;;;;9.79;100.00;101421.56;5044247;28;20030;-71
2024/03/13 09:17:33;;;;;;;68.03;32.83;;;;;;;9.77;100.00;101420.63;5041405;28;20318;-72
2024/03/13 09:19:58;;;;;;;72.43;33.72;;;;;;;9.74;100.00;101425.88;5031985;28;21511;-73
2024/03/13 09:22:23;;;;;;;71.70;35.03;;;;;;;9.75;100.00;101428.53;5043124;28;20132;-74
2024/03/13 09:24:50;;;;;;;69.25;33.38;;;;;;;9.77;100.00;101410.97;5042294;28;20431;-73
2024/03/13 09:27:16;;;;;;;75.03;34.38;;;;;;;9.83;100.00;101420.75;5042675;28;20045;-74
2024/03/13 09:29:41;;;;;;;69.78;32.35;;;;;;;9.87;100.00;101424.31;5043382;28;20021;-73
2024/03/13 09:32:09;;;;;;;64.97;32.35;;;;;;;9.86;100.00;101427.81;5041356;28;20503;-72
2024/03/13 09:34:35;;;;;;;61.53;30.75;;;;;;;9.84;100.00;101424.28;5044117;28;20529;-73
2024/03/13 09:37:04;;;;;;;60.83;30.42;;;;;;;9.84;100.00;101437.47;5041185;28;20029;-74
2024/03/13 09:39:30;;;;;;;62.05;31.38;;;;;;;9.87;100.00;101437.53;5044270;28;20032;-73
2024/03/13 09:41:57;;;;;;;59.33;28.88;;;;;;;9.93;100.00;101437.63;5041052;28;20026;-74
2024/03/13 09:44:23;;;;;;;57.28;28.88;;;;;;;9.93;100.00;101432.34;5043554;28;20029;-68
2024/03/13 09:46:51;;;;;;;55.13;28.42;;;;;;;9.99;100.00;101431.56;5040901;28;20246;-74
2024/03/13 09:49:18;;;;;;;54.85;28.70;;;;;;;10.08;100.00;101440.53;5042177;28;20476;-73
2024/03/13 09:51:45;;;;;;;52.90;28.17;;;;;;;10.07;100.00;101438.75;5042911;28;20464;-74
2024/03/13 09:54:12;;;;;;;54.17;28.25;;;;;;;10.12;100.00;101439.72;5041784;28;20034;-75
2024/03/13 09:56:40;;;;;;;51.03;27.92;;;;;;;10.09;100.00;101438.75;5043494;28;20033;-74
2024/03/13 09:59:10;;;;;;;51.22;26.55;;;;;;;10.10;100.00;101436.16;5041361;28;20033;-73
2024/03/13 10:01:49;;;;;;;48.28;25.52;;;;;;;10.16;100.00;101439.75;5044329;28;20108;-75
2024/03/13 10:04:22;;;;;;;47.45;26.92;;;;;;;10.12;100.00;101438.84;5046103;28;20037;-74
2024/03/13 10:06:56;;;;;;;45.83;25.63;;;;;;;10.09;100.00;101437.03;5046216;28;20044;-74
2024/03/13 10:09:30;;;;;;;43.63;24.15;;;;;;;10.10;100.00;101444.06;5046822;28;20029;-66
2024/03/13 10:12:00;;;;;;;44.85;24.33;;;;;;;10.10;100.00;101440.56;5045281;28;20025;-77
2024/03/13 10:14:26;;;;;;;45.35;24.48;;;;;;;10.16;100.00;101447.69;5047488;28;20021;-74
2024/03/13 10:16:53;;;;;;;43.30;23.25;;;;;;;10.16;100.00;101445.91;5044552;28;20060;-78
2024/03/13 10:19:23;;;;;;;43.45;23.92;;;;;;;10.14;100.00;101449.44;5046847;28;20045;-76
2024/03/13 10:21:53;;;;;;;41.15;23.02;;;;;;;10.12;100.00;101449.41;5045695;28;20048;-76
2024/03/13 10:24:22;;;;;;;42.78;24.52;;;;;;;10.13;100.00;101451.16;5046657;28;20031;-70
2024/03/13 10:26:49;;;;;;;42.92;24.67;;;;;;;10.12;100.00;101455.56;5046582;28;20418;-74
2024/03/13 10:29:17;;;;;;;41.17;23.85;;;;;;;10.18;100.00;101453.88;5044446;28;20030;-68
2024/03/13 10:31:43;;;;;;;41.28;24.60;;;;;;;10.21;100.00;101459.22;5046569;28;20112;-70
2024/03/13 10:34:09;;;;;;;43.10;25.00;;;;;;;10.20;100.00;101458.31;5045218;28;20077;-69
2024/03/13 10:36:38;;;;;;;41.10;23.85;;;;;;;10.26;100.00;101454.88;5046565;28;20480;-70
2024/03/13 10:39:08;;;;;;;41.67;25.15;;;;;;;10.28;100.00;101461.06;5044100;28;20038;-71
2024/03/13 10:41:34;;;;;;;40.65;23.60;;;;;;;10.32;100.00;101454.09;5047492;28;20025;-66
2024/03/13 10:44:00;;;;;;;42.00;25.27;;;;;;;10.30;100.00;101456.72;5043517;28;20048;-74
2024/03/13 10:46:30;;;;;;;40.92;24.27;;;;;;;10.28;100.00;101450.50;5046872;28;20025;-77
2024/03/13 10:48:57;;;;;;;40.60;23.92;;;;;;;10.45;100.00;101454.31;5044041;28;20033;-67
2024/03/13 10:51:23;;;;;;;40.35;22.95;;;;;;;10.55;100.00;101459.75;5046192;28;20498;-73
2024/03/13 10:53:48;;;;;;;39.45;23.58;;;;;;;10.48;100.00;101455.25;5045287;28;20491;-69
2024/03/13 10:56:15;;;;;;;42.00;23.05;;;;;;;10.46;100.00;101460.50;5044889;28;20076;-69
2024/03/13 10:58:46;;;;;;;37.97;22.17;;;;;;;10.59;100.00;101456.28;5046268;28;20092;-77
2024/03/13 11:01:18;;;;;;;36.20;21.92;;;;;;;10.56;100.00;101457.13;5044673;28;20128;-73
2024/03/13 11:03:45;;;;;;;35.72;21.98;;;;;;;10.53;100.00;101461.47;5045932;28;20036;-73
2024/03/13 11:06:14;;;;;;;36.80;22.05;;;;;;;10.55;100.00;101452.69;5043456;28;20069;-70
2024/03/13 11:08:43;;;;;;;35.38;20.92;;;;;;;10.54;100.00;101447.41;5046134;28;20032;-66
2024/03/13 11:11:13;;;;;;;33.40;19.80;;;;;;;10.52;100.00;101454.44;5042559;28;20034;-67
2024/03/13 11:13:42;;;;;;;33.83;19.20;;;;;;;10.54;100.00;101458.88;5043068;28;20107;-67
2024/03/13 11:16:10;;;;;;;34.38;19.50;;;;;;;10.56;100.00;101451.84;5046915;28;20029;-67
2024/03/13 11:18:37;;;;;;;33.05;19.10;;;;;;;10.55;100.00;101446.53;5043970;28;20060;-66
2024/03/13 11:21:07;;;;;;;33.53;19.17;;;;;;;10.53;100.00;101446.53;5045381;28;20069;-68
2024/03/13 11:23:41;;;;;;;31.73;17.08;;;;;;;10.58;100.00;101450.09;5044627;28;20036;-75